Time;durP1;ratioP1;P1;durP2;ratioP2;P2;SDS_P1;SDS_P2;PMS_P1;PMS_P2;Temp;Humidity;BMP_temperature;BMP_pressure;BME280_temperature;BME280_humidity;BME280_pressure;Samples;Min_cycle;Max_cycle;Signal;HPM_P1;HPM_P2
2022/03/08 00:01:12;;;;;;;1999.90;999.90;;;;;;;1.47;92.64;162789.03;5000314;28;20080;-67
2022/03/08 00:03:39;;;;;;;1999.90;999.90;;;;;;;1.70;91.84;162852.00;4985813;28;20217;-67
2022/03/08 00:06:05;;;;;;;1999.90;999.90;;;;;;;1.72;91.73;162856.09;5002773;28;20046;-67
2022/03/08 00:08:36;;;;;;;1999.90;999.90;;;;;;;1.88;90.81;162898.56;4993851;28;20442;-66
2022/03/08 00:11:03;;;;;;;1999.90;999.90;;;;;;;1.66;90.46;162841.03;5006623;28;20050;-67
2022/03/08 00:13:31;;;;;;;1999.90;999.90;;;;;;;1.56;90.95;162813.66;4991195;28;20261;-68
2022/03/08 00:15:57;;;;;;;1999.90;999.90;;;;;;;1.62;91.51;162830.06;5000237;28;20046;-68
2022/03/08 00:18:24;;;;;;;1999.90;999.90;;;;;;;1.74;90.26;162861.56;4994613;28;20350;-68
2022/03/08 00:20:51;;;;;;;1999.90;999.90;;;;;;;1.74;90.34;162862.97;4995812;28;20058;-68
2022/03/08 00:23:18;;;;;;;1999.90;999.90;;;;;;;1.79;90.35;162875.28;5005578;28;20309;-67
2022/03/08 00:25:50;;;;;;;1999.90;999.90;;;;;;;1.78;89.70;162871.19;4995057;28;20560;-66
2022/03/08 00:28:17;;;;;;;1999.90;999.90;;;;;;;1.66;90.44;162841.03;5002386;28;20046;-67
2022/03/08 00:30:43;;;;;;;1999.90;999.90;;;;;;;1.62;90.09;162830.06;4981952;28;20535;-67
2022/03/08 00:33:10;;;;;;;1999.90;999.90;;;;;;;1.50;90.84;162797.25;4995546;28;20061;-67
2022/03/08 00:35:37;;;;;;;1999.90;999.90;;;;;;;1.56;91.04;162813.66;5004933;28;20057;-68
2022/03/08 00:38:03;;;;;;;1999.90;999.90;;;;;;;1.46;91.90;162787.69;4992588;28;20053;-68
2022/03/08 00:40:30;;;;;;;1999.90;999.90;;;;;;;1.47;91.68;162789.03;4999258;28;20084;-68
2022/03/08 00:42:56;;;;;;;1999.90;999.90;;;;;;;1.51;91.84;162801.34;4989445;28;20051;-68
2022/03/08 00:45:23;;;;;;;1999.90;999.90;;;;;;;1.62;91.40;162830.06;4998825;28;20050;-68
2022/03/08 00:47:50;;;;;;;1999.90;999.90;;;;;;;1.72;90.85;162857.47;4993873;28;20370;-68
2022/03/08 00:50:22;;;;;;;1999.90;999.90;;;;;;;1.80;90.35;162876.63;5002382;28;20089;-68
2022/03/08 00:52:50;;;;;;;1999.90;999.90;;;;;;;1.69;90.26;162849.25;5004942;28;20054;-68
2022/03/08 00:55:19;;;;;;;1999.90;999.90;;;;;;;1.67;89.88;162842.44;4993020;28;20058;-68
2022/03/08 00:57:47;;;;;;;1999.90;999.90;;;;;;;1.54;90.20;162808.19;4999335;28;20047;-68
2022/03/08 01:00:15;;;;;;;1999.90;999.90;;;;;;;1.59;89.34;162821.88;4990205;28;20053;-68
2022/03/08 01:02:43;;;;;;;1999.90;999.90;;;;;;;1.26;89.76;162732.94;4997739;28;20057;-68
2022/03/08 01:05:10;;;;;;;1999.90;999.90;;;;;;;1.14;90.48;162701.47;4982925;28;20052;-68
2022/03/08 01:07:37;;;;;;;1999.90;999.90;;;;;;;1.09;91.02;162689.16;5000496;28;20104;-68
2022/03/08 01:10:06;;;;;;;1999.90;999.90;;;;;;;1.14;90.60;162702.81;5004308;28;20042;-68
2022/03/08 01:12:33;;;;;;;1999.90;999.90;;;;;;;1.18;90.67;162713.78;4984537;28;20074;-67
2022/03/08 01:15:01;;;;;;;1999.90;999.90;;;;;;;1.12;90.19;162697.34;4998933;28;20092;-68
2022/03/08 01:17:28;;;;;;;1999.90;999.90;;;;;;;1.15;90.90;162704.22;4982122;28;20424;-68
2022/03/08 01:19:54;;;;;;;1999.90;999.90;;;;;;;1.13;90.26;162698.72;5003754;28;20053;-68
2022/03/08 01:22:21;;;;;;;1999.90;999.90;;;;;;;1.13;90.03;162700.13;4994887;28;20394;-68
2022/03/08 01:24:48;;;;;;;1999.90;999.90;;;;;;;1.11;89.57;162694.59;4993793;28;20049;-67
2022/03/08 01:27:14;;;;;;;1999.90;999.90;;;;;;;1.13;90.19;162698.72;4996564;28;20057;-68
2022/03/08 01:29:41;;;;;;;1999.90;999.90;;;;;;;1.19;89.75;162715.13;4986490;28;20049;-68
2022/03/08 01:32:08;;;;;;;1999.90;999.90;;;;;;;1.20;89.22;162717.88;5000739;28;20142;-68
2022/03/08 01:34:35;;;;;;;1999.90;999.90;;;;;;;1.10;88.55;162690.50;4993250;28;20049;-68
2022/03/08 01:37:03;;;;;;;1999.90;999.90;;;;;;;0.64;90.00;162568.72;5004609;28;20046;-68
2022/03/08 01:39:30;;;;;;;1999.90;999.90;;;;;;;0.72;90.19;162590.66;4987915;28;20061;-67
2022/03/08 01:41:57;;;;;;;1999.90;999.90;;;;;;;0.91;89.28;162641.28;4998136;28;20061;-68
2022/03/08 01:44:24;;;;;;;1999.90;999.90;;;;;;;1.07;88.86;162682.28;5000748;28;20064;-68
2022/03/08 01:46:51;;;;;;;1999.90;999.90;;;;;;;1.07;88.51;162682.28;4987452;28;20065;-68
2022/03/08 01:49:17;;;;;;;1999.90;999.90;;;;;;;1.11;88.46;162693.25;5002486;28;20463;-68
2022/03/08 01:51:44;;;;;;;1999.90;999.90;;;;;;;1.09;88.39;162687.75;4992628;28;20461;-68
2022/03/08 01:54:11;;;;;;;1999.90;999.90;;;;;;;1.04;88.21;162676.84;4997328;28;20058;-68
2022/03/08 01:56:38;;;;;;;1999.90;999.90;;;;;;;1.08;88.10;162686.41;4987785;28;20046;-67
2022/03/08 01:59:04;;;;;;;1999.90;999.90;;;;;;;1.04;88.11;162676.84;4996952;28;20046;-68
2022/03/08 02:01:31;;;;;;;1999.90;999.90;;;;;;;1.07;88.14;162683.66;5003781;28;20050;-68
2022/03/08 02:03:58;;;;;;;1999.90;999.90;;;;;;;1.07;88.13;162683.66;4990938;28;20108;-68
2022/03/08 02:06:25;;;;;;;1999.90;999.90;;;;;;;1.01;87.70;162667.25;5001698;28;20046;-68
2022/03/08 02:08:52;;;;;;;1999.90;999.90;;;;;;;0.96;87.95;162653.56;4982118;28;20056;-68
2022/03/08 02:11:19;;;;;;;1999.90;999.90;;;;;;;0.32;89.18;162485.31;4993922;28;20058;-68
2022/03/08 02:13:46;;;;;;;1999.90;999.90;;;;;;;0.19;90.25;162449.75;4993658;28;20069;-67
2022/03/08 02:16:14;;;;;;;1999.90;999.90;;;;;;;0.24;90.63;162463.47;5004019;28;20554;-68
2022/03/08 02:18:41;;;;;;;1999.90;999.90;;;;;;;0.43;89.34;162512.66;4998273;28;20497;-68
2022/03/08 02:21:08;;;;;;;1999.90;999.90;;;;;;;0.48;88.88;162526.38;4986112;28;20419;-68
2022/03/08 02:23:35;;;;;;;1999.90;999.90;;;;;;;0.55;88.72;162545.47;4995793;28;20434;-68
2022/03/08 02:26:03;;;;;;;1999.90;999.90;;;;;;;0.58;88.70;162553.72;4991879;28;20049;-68
2022/03/08 02:28:31;;;;;;;1999.90;999.90;;;;;;;0.67;88.03;162578.34;4997202;28;20226;-68
2022/03/08 02:30:57;;;;;;;1999.90;999.90;;;;;;;0.60;88.94;162559.19;4993441;28;20098;-68
2022/03/08 02:33:24;;;;;;;1999.90;999.90;;;;;;;0.46;89.84;162522.28;5003172;28;20081;-68
2022/03/08 02:35:51;;;;;;;1999.90;999.90;;;;;;;0.58;89.84;162553.72;4994863;28;20133;-68
2022/03/08 02:38:18;;;;;;;1999.90;999.90;;;;;;;0.70;89.51;162585.19;4975575;28;20062;-68
2022/03/08 02:40:45;;;;;;;1999.90;999.90;;;;;;;0.60;89.92;162559.19;5003840;28;20042;-68
2022/03/08 02:43:12;;;;;;;1999.90;999.90;;;;;;;0.67;89.88;162578.34;4994199;28;20359;-68
2022/03/08 02:45:39;;;;;;;1999.90;999.90;;;;;;;0.52;90.52;162538.69;5003350;28;20053;-68
2022/03/08 02:48:07;;;;;;;1999.90;999.90;;;;;;;0.55;90.74;162544.13;4999587;28;20069;-68
2022/03/08 02:50:34;;;;;;;1999.90;999.90;;;;;;;0.53;90.87;162541.38;4994468;28;20065;-68
2022/03/08 02:53:01;;;;;;;1999.90;999.90;;;;;;;0.69;89.88;162583.78;4995833;28;20065;-68
2022/03/08 02:55:31;;;;;;;1999.90;999.90;;;;;;;0.72;89.84;162589.28;4990352;28;20049;-68
2022/03/08 02:57:57;;;;;;;1999.90;999.90;;;;;;;0.78;89.61;162607.06;5002378;28;20050;-69
2022/03/08 03:00:26;;;;;;;1999.90;999.90;;;;;;;0.64;90.17;162570.13;4994526;28;20054;-68
2022/03/08 03:02:53;;;;;;;1999.90;999.90;;;;;;;0.50;91.10;162533.19;5002971;28;20137;-68
2022/03/08 03:05:20;;;;;;;1999.90;999.90;;;;;;;0.51;91.35;162534.59;4979527;28;20296;-68
2022/03/08 03:07:47;;;;;;;1999.90;999.90;;;;;;;0.32;91.93;162485.31;5001977;28;20165;-68
2022/03/08 03:10:17;;;;;;;1999.90;999.90;;;;;;;0.44;91.39;162515.41;5003635;28;20056;-68
2022/03/08 03:12:45;;;;;;;1999.90;999.90;;;;;;;0.44;91.34;162515.41;4993870;28;20046;-68
2022/03/08 03:15:14;;;;;;;1999.90;999.90;;;;;;;0.52;90.98;162537.28;5000592;28;20050;-68
2022/03/08 03:17:42;;;;;;;1999.90;999.90;;;;;;;0.60;90.73;162559.19;4990646;28;20050;-69
2022/03/08 03:20:13;;;;;;;1999.90;999.90;;;;;;;0.55;90.28;162544.13;4996875;28;20058;-69
2022/03/08 03:22:40;;;;;;;1999.90;999.90;;;;;;;0.35;91.06;162493.53;5003947;28;20058;-69
2022/03/08 03:25:09;;;;;;;1999.90;999.90;;;;;;;0.31;91.34;162482.63;4996198;28;20068;-69
2022/03/08 03:27:36;;;;;;;1999.90;999.90;;;;;;;0.02;92.66;162404.66;5004032;28;20060;-68
2022/03/08 03:30:05;;;;;;;1999.90;999.90;;;;;;;-0.02;93.72;162393.72;4991336;28;20058;-68
2022/03/08 03:32:32;;;;;;;1999.90;999.90;;;;;;;-0.01;93.46;162396.47;4999095;28;20071;-69
2022/03/08 03:35:00;;;;;;;1999.90;999.90;;;;;;;0.06;93.06;162415.63;4989055;28;20072;-69
2022/03/08 03:37:27;;;;;;;1999.90;999.90;;;;;;;0.11;93.12;162429.25;5000482;28;20604;-68
2022/03/08 03:39:54;;;;;;;1999.90;999.90;;;;;;;0.19;92.05;162449.75;5006581;28;20452;-69
2022/03/08 03:42:20;;;;;;;1999.90;999.90;;;;;;;0.26;92.04;162467.56;4995266;28;20057;-69
2022/03/08 03:44:47;;;;;;;1999.90;999.90;;;;;;;0.13;92.04;162433.38;5006918;28;20069;-69
2022/03/08 03:47:14;;;;;;;1999.90;999.90;;;;;;;0.22;91.65;162456.63;4989719;28;20054;-69
2022/03/08 03:49:40;;;;;;;1999.90;999.90;;;;;;;0.35;91.12;162493.53;4999427;28;20049;-69
2022/03/08 03:52:07;;;;;;;1999.90;999.90;;;;;;;0.24;91.49;162463.47;4998845;28;20058;-69
2022/03/08 03:54:35;;;;;;;1999.90;999.90;;;;;;;0.15;92.07;162440.22;5006208;28;20061;-68
2022/03/08 03:57:02;;;;;;;1999.90;999.90;;;;;;;0.17;91.90;162444.31;5005428;28;20071;-69
2022/03/08 03:59:29;;;;;;;1999.90;999.90;;;;;;;0.21;91.77;162455.25;4986400;28;20060;-69
2022/03/08 04:01:55;;;;;;;1999.90;999.90;;;;;;;0.24;91.30;162462.06;4993196;28;20060;-67
2022/03/08 04:04:22;;;;;;;1999.90;999.90;;;;;;;0.28;91.14;162473.03;4993180;28;20050;-68
2022/03/08 04:06:49;;;;;;;1999.90;999.90;;;;;;;0.13;91.26;162433.38;5007113;28;20053;-69
2022/03/08 04:09:15;;;;;;;1999.90;999.90;;;;;;;0.02;91.90;162403.31;4995650;28;20050;-68
2022/03/08 04:11:42;;;;;;;1999.90;999.90;;;;;;;0.23;91.42;162460.72;5005371;28;20061;-68
2022/03/08 04:14:09;;;;;;;1999.90;999.90;;;;;;;0.41;90.28;162507.22;5002267;28;20057;-68
2022/03/08 04:16:35;;;;;;;1999.90;999.90;;;;;;;0.42;89.80;162511.31;4991393;28;20050;-68
2022/03/08 04:19:02;;;;;;;1999.90;999.90;;;;;;;0.30;90.28;162478.53;5006445;28;20100;-68
2022/03/08 04:21:29;;;;;;;1999.90;999.90;;;;;;;0.28;90.17;162474.41;4989907;28;20089;-68
2022/03/08 04:23:55;;;;;;;1999.90;999.90;;;;;;;0.21;90.60;162453.88;5004481;28;20057;-68
2022/03/08 04:26:22;;;;;;;1999.90;999.90;;;;;;;0.05;91.28;162412.88;4984760;28;20054;-68
2022/03/08 04:28:48;;;;;;;1999.90;999.90;;;;;;;-0.02;91.62;162395.06;4994636;28;20043;-68
2022/03/08 04:31:15;;;;;;;1999.90;999.90;;;;;;;0.01;92.08;162400.56;4997548;28;20076;-68
2022/03/08 04:33:42;;;;;;;1999.90;999.90;;;;;;;0.15;91.79;162438.88;4994180;28;20331;-68
2022/03/08 04:36:08;;;;;;;1999.90;999.90;;;;;;;0.27;90.79;162471.66;4997205;28;20050;-68
2022/03/08 04:38:35;;;;;;;1999.90;999.90;;;;;;;0.19;91.34;162448.41;4984922;28;20062;-69
2022/03/08 04:41:02;;;;;;;1999.90;999.90;;;;;;;0.14;91.54;162436.13;5003478;28;20077;-69
2022/03/08 04:43:29;;;;;;;1999.90;999.90;;;;;;;0.18;91.02;162447.06;4986537;28;20559;-68
2022/03/08 04:45:56;;;;;;;1999.90;999.90;;;;;;;-0.10;91.77;162371.88;4996239;28;20046;-69
2022/03/08 04:48:23;;;;;;;1999.90;999.90;;;;;;;0.01;91.43;162400.56;5008053;28;20104;-68
2022/03/08 04:50:49;;;;;;;1999.90;999.90;;;;;;;0.02;91.20;162404.66;4993626;28;20049;-69
2022/03/08 04:53:17;;;;;;;1999.90;999.90;;;;;;;0.28;90.33;162474.41;5005608;28;20072;-69
2022/03/08 04:55:43;;;;;;;1999.90;999.90;;;;;;;0.27;90.48;162471.66;4990581;28;20351;-69
2022/03/08 04:58:10;;;;;;;1999.90;999.90;;;;;;;0.29;90.72;162477.13;5000487;28;20319;-69
2022/03/08 05:00:37;;;;;;;1999.90;999.90;;;;;;;0.37;90.60;162497.63;4985991;28;20061;-69
2022/03/08 05:03:03;;;;;;;1999.90;999.90;;;;;;;0.13;92.02;162433.38;5003223;28;20068;-69
2022/03/08 05:05:33;;;;;;;1999.90;999.90;;;;;;;0.18;92.59;162447.06;5000102;28;20489;-69
2022/03/08 05:08:00;;;;;;;1999.90;999.90;;;;;;;0.30;92.21;162479.88;4992967;28;20064;-69
2022/03/08 05:10:27;;;;;;;1999.90;999.90;;;;;;;0.25;93.40;162464.81;5000766;28;20450;-69
2022/03/08 05:12:53;;;;;;;1999.90;999.90;;;;;;;0.40;92.39;162505.81;4985425;28;20065;-69
2022/03/08 05:15:20;;;;;;;1999.90;999.90;;;;;;;0.52;92.57;162537.28;4998327;28;20046;-69
2022/03/08 05:17:46;;;;;;;1999.90;999.90;;;;;;;0.59;92.52;162556.44;4994312;28;20049;-69
2022/03/08 05:20:13;;;;;;;1999.90;999.90;;;;;;;0.63;92.53;162566.03;5004432;28;20473;-69
2022/03/08 05:22:40;;;;;;;1999.90;999.90;;;;;;;0.57;92.83;162549.63;5005428;28;20351;-69
2022/03/08 05:25:07;;;;;;;1999.90;999.90;;;;;;;0.72;92.98;162590.66;4990518;28;20139;-68
2022/03/08 05:27:34;;;;;;;1999.90;999.90;;;;;;;0.59;93.40;162556.44;5000089;28;20054;-69
2022/03/08 05:30:00;;;;;;;1999.90;999.90;;;;;;;0.60;93.47;162559.19;4985764;28;20054;-69
2022/03/08 05:32:27;;;;;;;1999.90;999.90;;;;;;;0.81;93.40;162613.91;4994755;28;20247;-69
2022/03/08 05:34:53;;;;;;;1999.90;999.90;;;;;;;0.98;93.13;162660.44;4996251;28;20058;-69
2022/03/08 05:37:20;;;;;;;1999.90;999.90;;;;;;;0.74;93.94;162594.75;4999057;28;20306;-68
2022/03/08 05:39:46;;;;;;;1999.90;999.90;;;;;;;1.05;93.29;162678.19;4999047;28;20046;-69
2022/03/08 05:42:13;;;;;;;1999.90;999.90;;;;;;;1.08;92.67;162685.06;4990240;28;20076;-69
2022/03/08 05:44:40;;;;;;;1999.90;999.90;;;;;;;0.88;92.85;162633.06;5004449;28;20046;-69
2022/03/08 05:47:07;;;;;;;1999.90;999.90;;;;;;;0.65;94.25;162571.50;4990635;28;20056;-69
2022/03/08 05:49:33;;;;;;;1999.90;999.90;;;;;;;0.65;95.00;162572.84;4992124;28;20050;-69
2022/03/08 05:52:00;;;;;;;1999.90;999.90;;;;;;;0.76;94.33;162600.19;4996417;28;20335;-69
2022/03/08 05:54:28;;;;;;;1999.90;999.90;;;;;;;0.84;94.10;162622.09;4997933;28;20049;-69
2022/03/08 05:56:54;;;;;;;1999.90;999.90;;;;;;;0.86;93.77;162628.97;5004102;28;20042;-69
2022/03/08 05:59:21;;;;;;;1999.90;999.90;;;;;;;0.76;94.13;162600.19;4989062;28;20129;-69
2022/03/08 06:01:48;;;;;;;1999.90;999.90;;;;;;;0.87;93.90;162630.31;4994243;28;20054;-69
2022/03/08 06:04:14;;;;;;;1999.90;999.90;;;;;;;1.10;93.23;162690.50;4989992;28;20526;-69
2022/03/08 06:06:41;;;;;;;1999.90;999.90;;;;;;;1.16;92.80;162706.91;4998540;28;20084;-69
2022/03/08 06:09:08;;;;;;;1999.90;999.90;;;;;;;1.14;92.68;162702.81;4993438;28;20049;-69
2022/03/08 06:11:34;;;;;;;1999.90;999.90;;;;;;;1.25;92.24;162731.59;4994030;28;20378;-69
2022/03/08 06:14:01;;;;;;;1999.90;999.90;;;;;;;1.32;91.91;162750.69;4991796;28;20343;-69
2022/03/08 06:16:28;;;;;;;1999.90;999.90;;;;;;;0.95;93.21;162652.19;4993438;28;20080;-69
2022/03/08 06:18:58;;;;;;;1999.90;999.90;;;;;;;0.87;94.36;162631.66;5003168;28;20196;-69
2022/03/08 06:21:31;;;;;;;1999.90;999.90;;;;;;;0.95;93.68;162652.19;4981775;28;20137;-69
2022/03/08 06:23:57;;;;;;;1999.90;999.90;;;;;;;0.92;94.02;162642.63;5000592;28;20058;-69
2022/03/08 06:26:24;;;;;;;1999.90;999.90;;;;;;;1.14;93.59;162701.47;4985037;28;20084;-69
2022/03/08 06:28:50;;;;;;;1999.90;999.90;;;;;;;1.32;92.84;162750.69;5000259;28;20466;-68
2022/03/08 06:31:17;;;;;;;1999.90;999.90;;;;;;;1.18;93.45;162713.78;5001948;28;20060;-69
2022/03/08 06:33:44;;;;;;;1999.90;999.90;;;;;;;0.54;96.70;162542.78;4989745;28;20080;-69
2022/03/08 06:36:10;;;;;;;1999.90;999.90;;;;;;;0.63;96.03;162566.03;4998330;28;20055;-69
2022/03/08 06:38:37;;;;;;;1999.90;999.90;;;;;;;0.73;95.78;162592.00;4987858;28;20277;-69
2022/03/08 06:41:04;;;;;;;1999.90;999.90;;;;;;;0.56;97.19;162548.22;5002941;28;20050;-69
2022/03/08 06:43:31;;;;;;;1999.90;999.90;;;;;;;0.56;96.73;162548.22;4997594;28;20050;-69
2022/03/08 06:45:58;;;;;;;1999.90;999.90;;;;;;;0.60;97.43;162559.19;4997934;28;20277;-69
2022/03/08 06:48:31;;;;;;;1999.90;999.90;;;;;;;0.87;96.11;162631.66;4998653;28;20053;-69
2022/03/08 06:50:58;;;;;;;1999.90;999.90;;;;;;;1.04;95.20;162675.44;4988558;28;20064;-69
2022/03/08 06:53:24;;;;;;;1999.90;999.90;;;;;;;0.91;96.10;162641.28;5002916;28;20058;-69
2022/03/08 06:55:51;;;;;;;1999.90;999.90;;;;;;;1.13;95.81;162700.13;4990422;28;20073;-69
2022/03/08 06:58:18;;;;;;;1999.90;999.90;;;;;;;1.15;95.86;162704.22;5005023;28;20083;-69
2022/03/08 07:00:44;;;;;;;1999.90;999.90;;;;;;;1.20;96.12;162719.22;5003240;28;20077;-69
2022/03/08 07:03:11;;;;;;;1999.90;999.90;;;;;;;1.35;95.21;162758.91;4989215;28;20129;-69
2022/03/08 07:05:38;;;;;;;1999.90;999.90;;;;;;;1.22;96.28;162723.31;4993950;28;20050;-69
2022/03/08 07:08:05;;;;;;;1999.90;999.90;;;;;;;1.19;95.86;162716.53;4984825;28;20371;-69
2022/03/08 07:10:32;;;;;;;1999.90;999.90;;;;;;;1.32;95.71;162749.34;5005361;28;20050;-68
2022/03/08 07:12:59;;;;;;;1999.90;999.90;;;;;;;1.32;95.40;162749.34;4997865;28;20132;-68
2022/03/08 07:15:26;;;;;;;1999.90;999.90;;;;;;;1.40;94.98;162772.63;5004833;28;21133;-68
2022/03/08 07:17:52;;;;;;;1999.90;999.90;;;;;;;1.54;95.70;162808.19;4992672;28;20060;-68
2022/03/08 07:20:25;;;;;;;1999.90;999.90;;;;;;;1.36;96.30;162761.66;4996125;28;20052;-68
2022/03/08 07:22:52;;;;;;;1999.90;999.90;;;;;;;1.42;95.51;162776.72;4997367;28;20057;-68
2022/03/08 07:25:19;;;;;;;1999.90;999.90;;;;;;;1.15;95.63;162704.22;4999197;28;20176;-68
2022/03/08 07:27:45;;;;;;;1999.90;999.90;;;;;;;1.30;95.59;162743.91;5007215;28;20046;-68
2022/03/08 07:30:12;;;;;;;1999.90;999.90;;;;;;;0.76;97.23;162601.59;4993048;28;20058;-68
2022/03/08 07:32:39;;;;;;;1999.90;999.90;;;;;;;1.22;95.49;162724.72;5002296;28;20052;-67
2022/03/08 07:35:06;;;;;;;1999.90;999.90;;;;;;;1.37;95.11;162764.41;5006891;28;20050;-68
2022/03/08 07:37:37;;;;;;;1999.90;999.90;;;;;;;1.61;93.72;162827.38;4997715;28;20473;-68
2022/03/08 07:40:06;;;;;;;1999.90;999.90;;;;;;;1.44;95.14;162780.81;5006764;28;20445;-68
2022/03/08 07:42:33;;;;;;;1999.90;999.90;;;;;;;1.00;96.19;162664.53;4987982;28;20064;-67
2022/03/08 07:44:59;;;;;;;1999.90;999.90;;;;;;;0.67;98.61;162578.34;5002355;28;20058;-67
2022/03/08 07:47:26;;;;;;;1999.90;999.90;;;;;;;0.95;98.17;162652.19;4990135;28;20078;-67
2022/03/08 07:49:53;;;;;;;1999.90;999.90;;;;;;;0.80;98.12;162611.16;5005313;28;20442;-67
2022/03/08 07:52:19;;;;;;;1999.90;999.90;;;;;;;1.44;96.84;162782.19;5007772;28;20064;-67
2022/03/08 07:54:46;;;;;;;1999.90;999.90;;;;;;;1.50;95.36;162798.59;4995679;28;20336;-67
2022/03/08 07:57:13;;;;;;;1999.90;999.90;;;;;;;1.65;95.08;162836.94;5022107;28;20060;-68
2022/03/08 07:59:40;;;;;;;1999.90;999.90;;;;;;;1.43;96.65;162779.47;4989517;28;20061;-68
2022/03/08 08:02:08;;;;;;;1999.90;999.90;;;;;;;1.62;96.92;162830.06;5005449;28;20048;-67
2022/03/08 08:04:35;;;;;;;1999.90;999.90;;;;;;;1.45;96.06;162784.94;4996753;28;20104;-67
2022/03/08 08:07:02;;;;;;;1999.90;999.90;;;;;;;0.74;98.12;162594.75;4999973;28;20054;-68
2022/03/08 08:09:28;;;;;;;1999.90;999.90;;;;;;;0.48;99.85;162527.72;4998834;28;20061;-67
2022/03/08 08:11:55;;;;;;;1999.90;999.90;;;;;;;0.50;100.00;162531.81;5006885;28;20399;-67
2022/03/08 08:14:22;;;;;;;1999.90;999.90;;;;;;;0.33;100.00;162488.06;5002448;28;20054;-67
2022/03/08 08:16:49;;;;;;;1999.90;999.90;;;;;;;0.50;100.00;162533.19;4996492;28;20053;-67
2022/03/08 08:19:15;;;;;;;1999.90;999.90;;;;;;;0.75;99.45;162597.50;5006310;28;20049;-68
2022/03/08 08:21:43;;;;;;;1999.90;999.90;;;;;;;0.74;99.84;162596.09;4995454;28;20587;-67
2022/03/08 08:24:09;;;;;;;1999.90;999.90;;;;;;;0.72;100.00;162589.28;4994202;28;20351;-68
2022/03/08 08:26:36;;;;;;;1999.90;999.90;;;;;;;1.03;99.26;162674.09;5002144;28;20057;-68
2022/03/08 08:29:03;;;;;;;1999.90;999.90;;;;;;;1.24;97.93;162728.84;4991958;28;20038;-68
2022/03/08 08:31:31;;;;;;;1999.90;999.90;;;;;;;1.37;97.13;162764.41;5001986;28;20057;-68
2022/03/08 08:33:58;;;;;;;1999.90;999.90;;;;;;;1.48;96.58;162791.78;4996895;28;20060;-69
2022/03/08 08:36:24;;;;;;;1999.90;999.90;;;;;;;1.36;96.66;162761.66;5006778;28;20371;-68
2022/03/08 08:38:52;;;;;;;1999.90;999.90;;;;;;;1.20;97.58;162717.88;4996728;28;20474;-68
2022/03/08 08:41:18;;;;;;;1999.90;999.90;;;;;;;1.47;98.17;162789.03;5000011;28;20050;-68
2022/03/08 08:43:45;;;;;;;1999.90;999.90;;;;;;;1.56;96.92;162813.66;4999172;28;20442;-68
2022/03/08 08:46:12;;;;;;;1999.90;999.90;;;;;;;1.26;96.83;162734.28;4995660;28;20062;-69
2022/03/08 08:48:39;;;;;;;1999.90;999.90;;;;;;;1.54;96.86;162808.19;5006085;28;20285;-68
2022/03/08 08:51:05;;;;;;;1999.90;999.90;;;;;;;2.09;95.75;162956.03;4997812;28;20053;-68
2022/03/08 08:53:32;;;;;;;1999.90;999.90;;;;;;;2.15;94.58;162969.75;4994150;28;20068;-67
2022/03/08 08:55:59;;;;;;;1999.90;999.90;;;;;;;1.91;95.25;162906.78;4990457;28;20041;-68
2022/03/08 08:58:26;;;;;;;1999.90;999.90;;;;;;;1.92;95.32;162909.47;5004121;28;20042;-68
2022/03/08 09:00:52;;;;;;;1999.90;999.90;;;;;;;1.95;97.33;162917.72;4999702;28;20435;-67
2022/03/08 09:03:19;;;;;;;1999.90;999.90;;;;;;;2.00;96.10;162931.41;4994203;28;20132;-67
2022/03/08 09:05:49;;;;;;;1999.90;999.90;;;;;;;2.23;94.69;162991.63;5005753;28;20070;-68
2022/03/08 09:08:15;;;;;;;1999.90;999.90;;;;;;;1.75;96.33;162865.66;4992028;28;20327;-67
2022/03/08 09:10:42;;;;;;;1999.90;999.90;;;;;;;1.36;99.19;162761.66;5001155;28;20053;-67
2022/03/08 09:13:09;;;;;;;1999.90;999.90;;;;;;;1.96;96.29;162920.44;4991496;28;20042;-67
2022/03/08 09:15:35;;;;;;;1999.90;999.90;;;;;;;2.24;95.11;162994.38;5004605;28;20060;-67
2022/03/08 09:18:05;;;;;;;1999.90;999.90;;;;;;;1.87;96.74;162895.81;5003112;28;20521;-67
2022/03/08 09:20:32;;;;;;;1999.90;999.90;;;;;;;2.21;93.87;162987.53;4999506;28;20084;-68
2022/03/08 09:22:59;;;;;;;1999.90;999.90;;;;;;;1.48;97.27;162793.13;5000368;28;20111;-67
2022/03/08 09:25:26;;;;;;;1999.90;999.90;;;;;;;1.39;98.57;162769.88;4982593;28;20061;-68
2022/03/08 09:27:53;;;;;;;1999.90;999.90;;;;;;;1.18;99.41;162713.78;5004078;28;20061;-67
2022/03/08 09:30:19;;;;;;;1999.90;999.90;;;;;;;2.03;95.87;162939.59;4989237;28;20073;-68
2022/03/08 09:32:46;;;;;;;1999.90;999.90;;;;;;;2.14;94.29;162967.00;5004959;28;20050;-69
2022/03/08 09:35:13;;;;;;;1999.90;999.90;;;;;;;2.27;92.85;163002.59;5004064;28;20065;-68
2022/03/08 09:37:39;;;;;;;1999.90;999.90;;;;;;;2.32;91.66;163014.91;4985879;28;20049;-68
2022/03/08 09:40:07;;;;;;;1999.90;999.90;;;;;;;2.05;93.77;162945.06;4999723;28;20054;-68
2022/03/08 09:42:34;;;;;;;1999.90;999.90;;;;;;;2.22;94.24;162988.88;4991052;28;20050;-68
2022/03/08 09:45:01;;;;;;;1999.90;999.90;;;;;;;2.63;90.98;163098.47;5005183;28;20058;-68
2022/03/08 09:47:31;;;;;;;1999.90;999.90;;;;;;;2.10;92.05;162958.78;4993374;28;20046;-68
2022/03/08 09:49:58;;;;;;;1999.90;999.90;;;;;;;2.45;90.69;163051.88;5000697;28;20054;-67
2022/03/08 09:52:25;;;;;;;1999.90;999.90;;;;;;;2.26;89.90;162999.84;5001800;28;20057;-67
2022/03/08 09:54:52;;;;;;;1999.90;999.90;;;;;;;2.11;91.87;162960.13;4995400;28;20128;-67
2022/03/08 09:57:27;;;;;;;1999.90;999.90;;;;;;;2.29;92.01;163009.47;5003013;28;20227;-67
2022/03/08 09:59:53;;;;;;;1999.90;999.90;;;;;;;2.41;90.72;163040.97;4995788;28;20050;-67
2022/03/08 10:02:22;;;;;;;1999.90;999.90;;;;;;;3.14;87.57;163234.09;4998061;28;20054;-67
2022/03/08 10:05:06;;;;;;;1999.90;999.90;;;;;;;3.60;87.49;163357.41;4979197;28;20451;-67
2022/03/08 10:07:33;;;;;;;1999.90;999.90;;;;;;;3.42;86.09;163309.47;5000290;28;20077;-67
2022/03/08 10:10:00;;;;;;;1999.90;999.90;;;;;;;2.42;87.89;163042.31;4998540;28;20050;-67
2022/03/08 10:12:27;;;;;;;1999.90;999.90;;;;;;;2.13;89.58;162964.25;5013997;28;20407;-67
2022/03/08 10:14:54;;;;;;;1999.90;999.90;;;;;;;2.07;89.55;162950.56;5003651;28;20085;-67
2022/03/08 10:17:36;;;;;;;1999.90;999.90;;;;;;;2.38;87.89;163032.75;4991959;28;20060;-67
2022/03/08 10:20:06;;;;;;;1999.90;999.90;;;;;;;2.62;87.22;163095.72;4991281;28;20423;-67
2022/03/08 10:22:36;;;;;;;1999.90;999.90;;;;;;;3.05;86.39;163209.44;4986345;28;20279;-67
2022/03/08 10:25:15;;;;;;;1999.90;999.90;;;;;;;2.72;87.18;163123.09;4994595;28;20057;-67
2022/03/08 10:28:03;;;;;;;1999.90;999.90;;;;;;;2.74;84.93;163128.63;4987837;28;20080;-67
2022/03/08 10:30:42;;;;;;;1999.90;999.90;;;;;;;2.96;85.07;163186.13;4992441;28;20470;-67
2022/03/08 10:33:19;;;;;;;1999.90;999.90;;;;;;;2.67;86.15;163108.09;4982759;28;20088;-67
2022/03/08 10:35:53;;;;;;;;;;;;;;;3.00;85.48;163198.47;4997851;28;20425;-67
2022/03/08 10:38:20;;;;;;;1999.90;999.90;;;;;;;2.98;84.26;163191.66;4993878;28;19929;-68
2022/03/08 10:40:47;;;;;;;1999.90;999.90;;;;;;;2.80;86.11;163145.06;4991067;28;20177;-67
2022/03/08 10:43:16;;;;;;;1999.90;999.90;;;;;;;2.19;87.92;162980.66;5000958;28;20085;-67
2022/03/08 10:45:44;;;;;;;1999.90;999.90;;;;;;;2.16;87.50;162972.47;4992588;28;20065;-67
2022/03/08 10:48:17;;;;;;;1999.90;999.90;;;;;;;2.95;85.18;163183.44;4998275;28;20054;-67
2022/03/08 10:50:46;;;;;;;1999.90;999.90;;;;;;;3.25;83.28;163262.91;4990864;28;20046;-67
2022/03/08 10:53:14;;;;;;;1999.90;999.90;;;;;;;3.18;82.46;163246.41;5009034;28;20062;-67
2022/03/08 10:55:49;;;;;;;1999.90;999.90;;;;;;;3.07;83.74;163216.28;5004818;28;20347;-67